Duluth, MN

1:42 PM CST on December 04, 2016 (GMT -0600)
| | Change Station

Elev -9999 ft 0.00 °N, 0.00 °E | Updated

Snow
Snow
33 °F
Feels Like 28 °F
N
7
Wind Variable Wind from SSE
Gusts mph

Today
High -- | Low -- °F
--% Chance of Precip.
Yesterday
High -- | Low -- °F
Precip. -- in
Pressure 29.83 in
Visibility 5.0 miles
Clouds Overcast 600 ft
Windchill 28 °F
Dew Point 30 °F
Humidity 90%
Rainfall --
Snow Depth Not available.
7:36 AM 4:20 PM
Waxing Crescent, 25% visible
METAR KDLH 041855Z 16007KT 5SM BR OVC006 M01/M02 A2977 RMK AO2 SNE50 SLP101 P0000 T10061017
Pressure 29.83 in
Visibility 5.0 miles
Clouds Overcast 600 ft
Windchill 28 °F
Dew Point 30 °F
Humidity 90%
Rainfall --
Snow Depth Not available.
7:36 AM 4:20 PM
Waxing Crescent, 25% visible
METAR KDLH 041855Z 16007KT 5SM BR OVC006 M01/M02 A2977 RMK AO2 SNE50 SLP101 P0000 T10061017

10-Day Weather Forecast

Almanac

Astronomy

Dec. 04, 2016 Rise Set
Actual Time
Civil Twilight
Nautical Twilight
Astronomical Twilight
Moon
Length of Visible Light
Length of Day
Tomorrow will be .
, % of the Moon is Illuminated

Today's Extremes

State Highs State Lows

Community

WunderPhotos

Upload Photos

1,955,652 photos uploaded!

WunderBlog® & News

Nearby

Air Quality

  Air Quality AQ Index Pollutant
Not available.

Snow Depth

Station Depth Elevation

Earthquake Activity

City Distance Mag. Time & Date
Minimum magnitude displayed is 2.5.

Coastal Water Temperatures

Place Temperature

Stations

Nearby Weather Stations

Station Location Temp. Windchill Dew Point Humidity Wind Precip. Elev Updated Type
                   

Watches & Warnings

Winter Weather Advisory
Issued: 11:21 AM CST Dec. 4, 2016 – National Weather Service

... Winter Weather Advisory remains in effect until 6 PM CST this
evening...

* locations... Two Harbors... Silver Bay... and along the higher
terrain of the North Shore.

* Timing... through early this evening. The greatest snowfall
rates will be through the middle of the afternoon.

* Snow accumulations... a total of 3 to 6 inches. There were
reports of 1.5 to 3 inches from the Duluth area to nearly Two
Harbors as of 1115 am. The greatest snowfall will be along the
higher terrain... north of Silver Bay to Little Marais.

* Visibility... one-half mile at times... but gusty winds off Lake
Superior... combined with heavier snow bursts... could drop
visibility to one-quarter mile along portions of Highway 61.

* Impacts... the snow could cause travel difficulties.

Precautionary/preparedness actions...

A Winter Weather Advisory for snow means that accumulating snow
will cause travel difficulties. Be prepared for snow covered
roads and reduced visibility... and use caution while driving.
Allow extra time to reach your destination.



G2